Time;durP1;ratioP1;P1;durP2;ratioP2;P2;SDS_P1;SDS_P2;PMS_P1;PMS_P2;Temp;Humidity;BMP_temperature;BMP_pressure;BME280_temperature;BME280_humidity;BME280_pressure;Samples;Min_cycle;Max_cycle;Signal;HPM_P1;HPM_P2
2022/12/22 03:27:38;;;;;;;;;;;;;;;;;;5041933;28;19925;-80
2022/12/22 03:30:10;;;;;;;;;;;;;;;;;;5057670;28;19925;-80
2022/12/22 03:32:43;;;;;;;;;;;;;;;;;;5054892;28;20377;-79
2022/12/22 03:35:15;;;;;;;;;;;;;;;;;;5044600;28;19931;-79
2022/12/22 03:37:48;;;;;;;;;;;;;;;;;;5039419;28;19925;-80
2022/12/22 03:40:15;;;;;;;;;;;;;;;;;;5047267;28;19925;-79
2022/12/22 03:48:37;;;;;;;;;;;;;;;;;;5060147;28;19932;-80
2022/12/22 03:51:09;;;;;;;;;;;;;;;;;;5054134;28;19925;-80
2022/12/22 03:53:42;;;;;;;;;;;;;;;;;;5044996;28;19925;-79
2022/12/22 03:56:09;;;;;;;;;;;;;;;;;;5043340;28;19920;-80
2022/12/22 03:58:41;;;;;;;;;;;;;;;;;;5042928;28;19925;-80
2022/12/22 04:01:09;;;;;;;;;;;;;;;;;;5043487;28;19929;-79
2022/12/22 04:03:41;;;;;;;;;;;;;;;;;;5073976;28;20594;-79
2022/12/22 04:06:14;;;;;;;;;;;;;;;;;;5041696;28;19925;-80
2022/12/22 04:08:46;;;;;;;;;;;;;;;;;;5057337;28;20347;-79
2022/12/22 04:13:59;;;;;;;;;;;;;;;;;;5043626;28;19928;-80
2022/12/22 04:16:27;;;;;;;;;;;;;;;;;;5042729;28;20594;-80
2022/12/22 04:18:59;;;;;;;;;;;;;;;;;;5045453;28;19928;-80
2022/12/22 04:21:27;;;;;;;;;;;;;;;;;;5044605;28;19944;-80
2022/12/22 04:23:59;;;;;;;;;;;;;;;;;;5040376;28;19931;-79
2022/12/22 04:26:32;;;;;;;;;;;;;;;;;;5043145;28;19928;-80
2022/12/22 04:29:04;;;;;;;;;;;;;;;;;;5043156;28;19921;-79
2022/12/22 04:31:32;;;;;;;;;;;;;;;;;;5042074;28;19921;-80
2022/12/22 04:34:04;;;;;;;;;;;;;;;;;;5045918;28;19927;-80
2022/12/22 04:36:37;;;;;;;;;;;;;;;;;;5044912;28;19921;-80
2022/12/22 04:39:09;;;;;;;;;;;;;;;;;;5040785;28;19943;-79
2022/12/22 04:41:43;;;;;;;;;;;;;;;;;;5043304;28;19920;-79
2022/12/22 04:44:16;;;;;;;;;;;;;;;;;;5042392;28;19925;-80
2022/12/22 04:46:43;;;;;;;;;;;;;;;;;;5040123;28;19928;-80
2022/12/22 04:49:16;;;;;;;;;;;;;;;;;;5043891;28;19932;-78
2022/12/22 04:51:49;;;;;;;;;;;;;;;;;;5042576;28;19921;-79
2022/12/22 04:54:21;;;;;;;;;;;;;;;;;;5061930;28;19925;-80
2022/12/22 04:56:54;;;;;;;;;;;;;;;;;;5040330;28;19921;-79
2022/12/22 04:59:21;;;;;;;;;;;;;;;;;;5043332;28;20296;-79
2022/12/22 05:01:49;;;;;;;;;;;;;;;;;;5042318;28;19944;-79
2022/12/22 05:04:21;;;;;;;;;;;;;;;;;;5042143;28;19932;-79
2022/12/22 05:06:54;;;;;;;;;;;;;;;;;;5038794;28;20297;-81
2022/12/22 05:09:26;;;;;;;;;;;;;;;;;;5047545;28;19932;-80
2022/12/22 05:11:54;;;;;;;;;;;;;;;;;;5042705;28;19921;-80
2022/12/22 05:14:26;;;;;;;;;;;;;;;;;;5069787;28;19932;-79
2022/12/22 05:16:54;;;;;;;;;;;;;;;;;;5058124;28;19920;-78
2022/12/22 05:19:21;;;;;;;;;;;;;;;;;;5042865;28;20258;-80
2022/12/22 05:21:49;;;;;;;;;;;;;;;;;;5040897;28;19925;-79
2022/12/22 05:24:16;;;;;;;;;;;;;;;;;;5039574;28;19924;-80
2022/12/22 05:26:44;;;;;;;;;;;;;;;;;;5039345;28;20392;-79
2022/12/22 05:29:16;;;;;;;;;;;;;;;;;;5040051;28;19925;-80
2022/12/22 05:31:49;;;;;;;;;;;;;;;;;;5041996;28;19925;-79
2022/12/22 05:34:16;;;;;;;;;;;;;;;;;;5041368;28;19925;-80
2022/12/22 05:36:44;;;;;;;;;;;;;;;;;;5039309;28;19921;-79
2022/12/22 05:39:11;;;;;;;;;;;;;;;;;;5039810;28;19920;-80
2022/12/22 05:41:44;;;;;;;;;;;;;;;;;;5043211;28;19928;-80
2022/12/22 05:44:12;;;;;;;;;;;;;;;;;;5038868;28;20568;-79
2022/12/22 05:46:39;;;;;;;;;;;;;;;;;;5035672;28;20039;-80
2022/12/22 05:49:12;;;;;;;;;;;;;;;;;;5042372;28;19925;-80
2022/12/22 05:51:39;;;;;;;;;;;;;;;;;;5039591;28;19953;-79
2022/12/22 05:54:07;;;;;;;;;;;;;;;;;;5038488;28;19920;-79
2022/12/22 05:56:39;;;;;;;;;;;;;;;;;;5038408;28;19932;-79
2022/12/22 05:59:07;;;;;;;;;;;;;;;;;;5070472;28;19924;-79
2022/12/22 06:01:39;;;;;;;;;;;;;;;;;;5035867;28;20007;-80
2022/12/22 06:04:12;;;;;;;;;;;;;;;;;;5039432;28;19924;-80
2022/12/22 06:06:39;;;;;;;;;;;;;;;;;;5041094;28;19921;-79
2022/12/22 06:09:07;;;;;;;;;;;;;;;;;;5036515;28;19921;-80
2022/12/22 06:11:40;;;;;;;;;;;;;;;;;;5041405;28;19924;-80
2022/12/22 06:14:12;;;;;;;;;;;;;;;;;;5039582;28;20316;-79
2022/12/22 06:16:45;;;;;;;;;;;;;;;;;;5038436;28;20293;-78
2022/12/22 06:19:12;;;;;;;;;;;;;;;;;;5037926;28;19925;-78
2022/12/22 06:21:45;;;;;;;;;;;;;;;;;;5066556;28;19928;-79
2022/12/22 06:24:12;;;;;;;;;;;;;;;;;;5037978;28;19925;-79
2022/12/22 06:26:45;;;;;;;;;;;;;;;;;;5036759;28;19931;-79
2022/12/22 06:29:12;;;;;;;;;;;;;;;;;;5035143;28;19928;-81
2022/12/22 06:31:40;;;;;;;;;;;;;;;;;;5052612;28;19921;-79
2022/12/22 06:34:12;;;;;;;;;;;;;;;;;;5034376;28;20458;-79
2022/12/22 06:36:45;;;;;;;;;;;;;;;;;;5036447;28;19925;-80
2022/12/22 06:39:13;;;;;;;;;;;;;;;;;;5040758;28;19925;-78
2022/12/22 06:44:30;;;;;;;;;;;;;;;;;;5042024;28;19928;-79
2022/12/22 06:47:04;;;;;;;;;;;;;;;;;;5072484;28;19921;-80
2022/12/22 06:49:32;;;;;;;;;;;;;;;;;;5041493;28;19921;-79
2022/12/22 06:52:04;;;;;;;;;;;;;;;;;;5056277;28;19925;-79
2022/12/22 06:54:37;;;;;;;;;;;;;;;;;;5047644;28;20285;-79
2022/12/22 06:57:04;;;;;;;;;;;;;;;;;;5043024;28;19929;-81
2022/12/22 06:59:37;;;;;;;;;;;;;;;;;;5044073;28;19932;-80
2022/12/22 07:02:09;;;;;;;;;;;;;;;;;;5039153;28;19933;-79
2022/12/22 07:04:42;;;;;;;;;;;;;;;;;;5039935;28;19928;-80
2022/12/22 07:07:09;;;;;;;;;;;;;;;;;;5045116;28;19932;-80
2022/12/22 07:09:42;;;;;;;;;;;;;;;;;;5040710;28;20369;-80
2022/12/22 07:12:14;;;;;;;;;;;;;;;;;;5042599;28;19924;-79
2022/12/22 07:14:46;;;;;;;;;;;;;;;;;;5041416;28;19935;-79
2022/12/22 07:17:19;;;;;;;;;;;;;;;;;;5040215;28;19925;-80
2022/12/22 07:19:46;;;;;;;;;;;;;;;;;;5042142;28;19921;-79
2022/12/22 07:22:14;;;;;;;;;;;;;;;;;;5042053;28;19932;-79
2022/12/22 07:24:46;;;;;;;;;;;;;;;;;;5038667;28;19925;-80
2022/12/22 07:27:19;;;;;;;;;;;;;;;;;;5044722;28;19932;-80
2022/12/22 07:29:51;;;;;;;;;;;;;;;;;;5045869;28;19943;-79
2022/12/22 07:32:19;;;;;;;;;;;;;;;;;;5043811;28;19932;-80
2022/12/22 07:34:46;;;;;;;;;;;;;;;;;;5070903;28;20281;-79
2022/12/22 07:37:14;;;;;;;;;;;;;;;;;;5041744;28;19929;-81
2022/12/22 07:39:41;;;;;;;;;;;;;;;;;;5040220;28;19936;-82
2022/12/22 07:45:04;;;;;;;;;;;;;;;;;;5019348;28;19932;-81
2022/12/22 07:47:37;;;;;;;;;;;;;;;;;;5027747;28;19929;-80
2022/12/22 07:52:54;;;;;;;;;;;;;;;;;;5029005;28;19928;-83
2022/12/22 07:55:27;;;;;;;;;;;;;;;;;;5029579;28;19967;-82
2022/12/22 07:57:55;;;;;;;;;;;;;;;;;;5020705;28;19935;-81
2022/12/22 08:00:22;;;;;;;;;;;;;;;;;;5022992;28;19921;-82
2022/12/22 08:02:50;;;;;;;;;;;;;;;;;;5052622;28;19935;-83
2022/12/22 08:05:17;;;;;;;;;;;;;;;;;;5024205;28;19928;-80
2022/12/22 08:07:45;;;;;;;;;;;;;;;;;;5026024;28;19929;-86
2022/12/22 08:10:12;;;;;;;;;;;;;;;;;;5025172;28;20542;-83
2022/12/22 08:12:41;;;;;;;;;;;;;;;;;;5028253;28;20821;-92
2022/12/22 08:15:14;;;;;;;;;;;;;;;;;;5058267;28;19929;-83
2022/12/22 08:17:41;;;;;;;;;;;;;;;;;;5022274;28;19929;-84
2022/12/22 08:20:14;;;;;;;;;;;;;;;;;;5051457;28;19928;-82
2022/12/22 08:22:46;;;;;;;;;;;;;;;;;;5028981;28;19929;-85
2022/12/22 08:25:14;;;;;;;;;;;;;;;;;;5026823;28;20424;-86
2022/12/22 08:27:46;;;;;;;;;;;;;;;;;;5027298;28;20361;-87
2022/12/22 08:30:19;;;;;;;;;;;;;;;;;;5025824;28;19928;-83
2022/12/22 08:32:46;;;;;;;;;;;;;;;;;;5053484;28;19928;-81
2022/12/22 08:35:14;;;;;;;;;;;;;;;;;;5024533;28;21338;-83
2022/12/22 08:37:42;;;;;;;;;;;;;;;;;;5012838;28;20111;-87
2022/12/22 08:40:14;;;;;;;;;;;;;;;;;;5026220;28;19939;-83
2022/12/22 08:42:42;;;;;;;;;;;;;;;;;;5023437;28;19929;-82
2022/12/22 08:45:14;;;;;;;;;;;;;;;;;;5017383;28;19925;-81
2022/12/22 08:47:47;;;;;;;;;;;;;;;;;;5058611;28;19925;-88
2022/12/22 08:50:19;;;;;;;;;;;;;;;;;;5027646;28;19928;-85
2022/12/22 08:52:52;;;;;;;;;;;;;;;;;;5052842;28;19928;-81
2022/12/22 08:55:25;;;;;;;;;;;;;;;;;;5010803;28;19940;-81
2022/12/22 08:57:52;;;;;;;;;;;;;;;;;;5058818;28;19928;-81
2022/12/22 09:00:25;;;;;;;;;;;;;;;;;;5005451;28;19924;-82
2022/12/22 09:02:52;;;;;;;;;;;;;;;;;;5043276;28;20055;-82
2022/12/22 09:05:25;;;;;;;;;;;;;;;;;;5015595;28;19936;-88
2022/12/22 09:07:52;;;;;;;;;;;;;;;;;;5024670;28;20045;-81
2022/12/22 09:10:20;;;;;;;;;;;;;;;;;;5024127;28;19951;-85
2022/12/22 09:12:50;;;;;;;;;;;;;;;;;;5025069;28;20777;-85
2022/12/22 09:15:22;;;;;;;;;;;;;;;;;;5054112;28;20595;-83
2022/12/22 09:17:55;;;;;;;;;;;;;;;;;;5023947;28;19925;-85
2022/12/22 09:20:27;;;;;;;;;;;;;;;;;;5026608;28;19928;-81
2022/12/22 09:22:54;;;;;;;;;;;;;;;;;;5017620;28;19929;-82
2022/12/22 09:25:22;;;;;;;;;;;;;;;;;;5023130;28;19924;-82
2022/12/22 09:27:50;;;;;;;;;;;;;;;;;;5025202;28;20452;-81
2022/12/22 09:30:22;;;;;;;;;;;;;;;;;;5052202;28;20158;-84
2022/12/22 09:32:50;;;;;;;;;;;;;;;;;;5055385;28;20586;-83
2022/12/22 09:35:23;;;;;;;;;;;;;;;;;;5026569;28;19939;-84
2022/12/22 09:37:50;;;;;;;;;;;;;;;;;;5024605;28;20768;-82
2022/12/22 09:40:20;;;;;;;;;;;;;;;;;;5018244;28;19928;-81
2022/12/22 09:42:48;;;;;;;;;;;;;;;;;;5022200;28;19928;-86
2022/12/22 09:45:20;;;;;;;;;;;;;;;;;;5048895;28;19928;-83
2022/12/22 09:47:52;;;;;;;;;;;;;;;;;;5028143;28;19947;-85
2022/12/22 09:50:22;;;;;;;;;;;;;;;;;;5024853;28;19921;-83
2022/12/22 09:52:49;;;;;;;;;;;;;;;;;;5024159;28;19929;-83
2022/12/22 09:55:22;;;;;;;;;;;;;;;;;;5018713;28;20409;-85
2022/12/22 09:57:54;;;;;;;;;;;;;;;;;;5038355;28;19935;-84
2022/12/22 10:00:27;;;;;;;;;;;;;;;;;;5020887;28;19936;-83
2022/12/22 10:02:59;;;;;;;;;;;;;;;;;;5017273;28;19929;-82
2022/12/22 10:05:29;;;;;;;;;;;;;;;;;;5018331;28;20008;-83
2022/12/22 10:08:02;;;;;;;;;;;;;;;;;;5016232;28;19944;-82
2022/12/22 10:10:29;;;;;;;;;;;;;;;;;;5019411;28;19928;-84
2022/12/22 10:13:02;;;;;;;;;;;;;;;;;;5018383;28;20802;-85
2022/12/22 10:15:34;;;;;;;;;;;;;;;;;;5021683;28;21235;-84
2022/12/22 10:18:07;;;;;;;;;;;;;;;;;;5020224;28;19928;-85
2022/12/22 10:20:39;;;;;;;;;;;;;;;;;;5014311;28;19928;-84
2022/12/22 10:23:10;;;;;;;;;;;;;;;;;;5017889;28;20527;-85
2022/12/22 10:25:38;;;;;;;;;;;;;;;;;;5023927;28;19938;-87
2022/12/22 10:28:11;;;;;;;;;;;;;;;;;;5017037;28;19944;-85
2022/12/22 10:30:43;;;;;;;;;;;;;;;;;;5019355;28;19940;-85
2022/12/22 10:33:16;;;;;;;;;;;;;;;;;;5025003;28;19925;-83
2022/12/22 10:35:43;;;;;;;;;;;;;;;;;;5001185;28;19929;-83
2022/12/22 10:38:11;;;;;;;;;;;;;;;;;;4999800;28;19925;-85
2022/12/22 10:40:43;;;;;;;;;;;;;;;;;;5021684;28;19933;-83
2022/12/22 10:43:11;;;;;;;;;;;;;;;;;;5015902;28;19949;-81
2022/12/22 10:45:43;;;;;;;;;;;;;;;;;;5003015;28;20251;-83
2022/12/22 10:48:16;;;;;;;;;;;;;;;;;;4998661;28;19929;-82
2022/12/22 10:50:49;;;;;;;;;;;;;;;;;;5011327;28;19928;-84
2022/12/22 10:53:16;;;;;;;;;;;;;;;;;;5022980;28;20515;-82
2022/12/22 10:55:44;;;;;;;;;;;;;;;;;;5044926;28;19928;-84
2022/12/22 10:58:11;;;;;;;;;;;;;;;;;;5019616;28;19928;-82
2022/12/22 11:00:40;;;;;;;;;;;;;;;;;;5020221;28;20175;-86
2022/12/22 11:03:07;;;;;;;;;;;;;;;;;;5025996;28;19935;-84
2022/12/22 11:05:35;;;;;;;;;;;;;;;;;;5014800;28;19928;-84
2022/12/22 11:08:04;;;;;;;;;;;;;;;;;;5024584;28;19929;-81
2022/12/22 11:10:31;;;;;;;;;;;;;;;;;;5022808;28;19929;-83
2022/12/22 11:13:04;;;;;;;;;;;;;;;;;;5020580;28;19936;-83
2022/12/22 11:15:34;;;;;;;;;;;;;;;;;;5020412;28;19929;-85
2022/12/22 11:18:02;;;;;;;;;;;;;;;;;;5016709;28;19935;-83
2022/12/22 11:20:29;;;;;;;;;;;;;;;;;;5022028;28;19929;-83
2022/12/22 11:22:57;;;;;;;;;;;;;;;;;;5018429;28;19932;-82
2022/12/22 11:25:29;;;;;;;;;;;;;;;;;;5028697;28;20416;-85
2022/12/22 11:27:57;;;;;;;;;;;;;;;;;;5025335;28;19928;-83
2022/12/22 11:30:24;;;;;;;;;;;;;;;;;;5024399;28;19929;-80
2022/12/22 11:32:52;;;;;;;;;;;;;;;;;;5019208;28;20863;-81
2022/12/22 11:35:24;;;;;;;;;;;;;;;;;;5020340;28;19929;-84
2022/12/22 11:37:57;;;;;;;;;;;;;;;;;;5021191;28;19928;-83
2022/12/22 11:40:24;;;;;;;;;;;;;;;;;;5025213;28;20377;-82
2022/12/22 11:42:57;;;;;;;;;;;;;;;;;;5057563;28;19936;-81
2022/12/22 11:45:29;;;;;;;;;;;;;;;;;;5050179;28;20580;-81
2022/12/22 11:48:02;;;;;;;;;;;;;;;;;;5050003;28;19928;-82
2022/12/22 11:50:29;;;;;;;;;;;;;;;;;;5027983;28;19929;-86
2022/12/22 11:52:57;;;;;;;;;;;;;;;;;;5031132;28;19929;-86
2022/12/22 11:55:24;;;;;;;;;;;;;;;;;;5019867;28;19932;-86
2022/12/22 11:57:52;;;;;;;;;;;;;;;;;;5022187;28;19932;-82
2022/12/22 12:00:24;;;;;;;;;;;;;;;;;;5021429;28;19929;-81
2022/12/22 12:02:52;;;;;;;;;;;;;;;;;;5023387;28;19928;-81
2022/12/22 12:05:20;;;;;;;;;;;;;;;;;;5018459;28;19929;-86
2022/12/22 12:07:47;;;;;;;;;;;;;;;;;;5022535;28;19928;-86
2022/12/22 12:10:23;;;;;;;;;;;;;;;;;;5058549;28;21190;-84
2022/12/22 12:12:50;;;;;;;;;;;;;;;;;;5021772;28;19948;-84
2022/12/22 12:15:18;;;;;;;;;;;;;;;;;;5026420;28;19928;-83
2022/12/22 12:17:51;;;;;;;;;;;;;;;;;;5017997;28;19933;-82
2022/12/22 12:20:23;;;;;;;;;;;;;;;;;;5018477;28;19928;-81
2022/12/22 12:22:51;;;;;;;;;;;;;;;;;;5022018;28;19939;-84
2022/12/22 12:25:18;;;;;;;;;;;;;;;;;;5019814;28;20701;-83
2022/12/22 12:27:46;;;;;;;;;;;;;;;;;;5023478;28;20365;-86
2022/12/22 12:30:13;;;;;;;;;;;;;;;;;;5022011;28;19948;-84
2022/12/22 12:32:41;;;;;;;;;;;;;;;;;;5022732;28;19925;-81
2022/12/22 12:35:08;;;;;;;;;;;;;;;;;;5025004;28;19929;-84
2022/12/22 12:37:41;;;;;;;;;;;;;;;;;;5031239;28;19924;-83
2022/12/22 12:40:09;;;;;;;;;;;;;;;;;;4998129;28;19928;-85
2022/12/22 12:42:36;;;;;;;;;;;;;;;;;;5024134;28;19954;-85
2022/12/22 12:45:09;;;;;;;;;;;;;;;;;;5060078;28;19935;-86
2022/12/22 12:47:36;;;;;;;;;;;;;;;;;;5060200;28;20324;-84
2022/12/22 12:50:09;;;;;;;;;;;;;;;;;;5025205;28;19929;-83
2022/12/22 12:52:37;;;;;;;;;;;;;;;;;;5023388;28;19929;-84
2022/12/22 12:55:04;;;;;;;;;;;;;;;;;;5026434;28;19940;-83
2022/12/22 12:57:32;;;;;;;;;;;;;;;;;;5034459;28;20370;-83
2022/12/22 12:59:59;;;;;;;;;;;;;;;;;;5028912;28;19928;-83
2022/12/22 13:02:27;;;;;;;;;;;;;;;;;;5028379;28;19925;-85
2022/12/22 13:04:54;;;;;;;;;;;;;;;;;;5024805;28;20420;-82
2022/12/22 13:07:22;;;;;;;;;;;;;;;;;;5031832;28;20605;-84
2022/12/22 13:09:54;;;;;;;;;;;;;;;;;;5026318;28;19929;-83
2022/12/22 13:12:27;;;;;;;;;;;;;;;;;;5024343;28;19944;-82
2022/12/22 13:14:54;;;;;;;;;;;;;;;;;;5031128;28;20415;-85
2022/12/22 13:17:22;;;;;;;;;;;;;;;;;;5030221;28;19928;-83
2022/12/22 13:19:50;;;;;;;;;;;;;;;;;;5021827;28;19935;-83
2022/12/22 13:22:17;;;;;;;;;;;;;;;;;;5026629;28;19936;-83
2022/12/22 13:24:45;;;;;;;;;;;;;;;;;;5024801;28;19928;-85
2022/12/22 13:27:17;;;;;;;;;;;;;;;;;;5024919;28;20299;-83
2022/12/22 13:29:50;;;;;;;;;;;;;;;;;;5020556;28;19925;-83
2022/12/22 13:32:17;;;;;;;;;;;;;;;;;;5056707;28;19929;-83
2022/12/22 13:34:50;;;;;;;;;;;;;;;;;;5026450;28;20041;-81
2022/12/22 13:37:17;;;;;;;;;;;;;;;;;;5021977;28;20428;-82
2022/12/22 13:39:45;;;;;;;;;;;;;;;;;;5021395;28;19940;-83
2022/12/22 13:42:17;;;;;;;;;;;;;;;;;;4978708;28;19924;-83
2022/12/22 13:44:50;;;;;;;;;;;;;;;;;;5015771;28;19929;-83
2022/12/22 13:47:22;;;;;;;;;;;;;;;;;;5025323;28;19929;-84
2022/12/22 13:49:52;;;;;;;;;;;;;;;;;;5056123;28;20288;-88
2022/12/22 13:52:24;;;;;;;;;;;;;;;;;;5023743;28;19929;-84
2022/12/22 14:19:30;;;;;;;;;;;;;;;;;;5018351;28;21125;-81
2022/12/22 14:21:57;;;;;;;;;;;;;;;;;;5020466;28;20008;-81
2022/12/22 14:24:25;;;;;;;;;;;;;;;;;;5008329;28;19936;-83
2022/12/22 14:26:57;;;;;;;;;;;;;;;;;;5014449;28;19929;-84
2022/12/22 14:29:25;;;;;;;;;;;;;;;;;;5017535;28;19928;-84
2022/12/22 14:31:57;;;;;;;;;;;;;;;;;;5022706;28;19936;-81
2022/12/22 14:34:25;;;;;;;;;;;;;;;;;;5008054;28;19935;-83
2022/12/22 14:36:57;;;;;;;;;;;;;;;;;;5014048;28;19939;-84
2022/12/22 14:39:25;;;;;;;;;;;;;;;;;;5020492;28;19936;-82
2022/12/22 14:41:53;;;;;;;;;;;;;;;;;;4994546;28;20464;-82
2022/12/22 14:44:26;;;;;;;;;;;;;;;;;;5019710;28;20305;-84
2022/12/22 14:46:53;;;;;;;;;;;;;;;;;;5019668;28;19929;-86
2022/12/22 14:49:21;;;;;;;;;;;;;;;;;;5027710;28;19939;-83
2022/12/22 14:51:48;;;;;;;;;;;;;;;;;;5020408;28;19932;-86
2022/12/22 14:54:21;;;;;;;;;;;;;;;;;;5017837;28;20404;-82
2022/12/22 14:56:49;;;;;;;;;;;;;;;;;;5022316;28;20433;-85
2022/12/22 14:59:16;;;;;;;;;;;;;;;;;;5029494;28;19956;-84
2022/12/22 15:01:49;;;;;;;;;;;;;;;;;;5028948;28;19929;-83
2022/12/22 15:04:16;;;;;;;;;;;;;;;;;;5024741;28;19936;-85
2022/12/22 15:06:44;;;;;;;;;;;;;;;;;;5044946;28;19929;-82
2022/12/22 15:09:12;;;;;;;;;;;;;;;;;;5030751;28;19935;-86
2022/12/22 15:11:39;;;;;;;;;;;;;;;;;;5028117;28;19935;-88
2022/12/22 15:14:12;;;;;;;;;;;;;;;;;;5033578;28;21256;-83
2022/12/22 15:16:40;;;;;;;;;;;;;;;;;;5029576;28;19929;-83
2022/12/22 15:19:07;;;;;;;;;;;;;;;;;;5025144;28;20606;-84
2022/12/22 15:21:35;;;;;;;;;;;;;;;;;;5033780;28;19929;-83
2022/12/22 15:24:08;;;;;;;;;;;;;;;;;;5023333;28;19933;-85
2022/12/22 15:26:40;;;;;;;;;;;;;;;;;;5023130;28;19928;-82
2022/12/22 15:29:08;;;;;;;;;;;;;;;;;;5028742;28;20493;-82
2022/12/22 15:31:36;;;;;;;;;;;;;;;;;;5031831;28;19929;-84
2022/12/22 15:34:08;;;;;;;;;;;;;;;;;;5051962;28;19935;-84
2022/12/22 15:36:36;;;;;;;;;;;;;;;;;;5025193;28;20590;-81
2022/12/22 15:39:08;;;;;;;;;;;;;;;;;;5022883;28;20133;-84
2022/12/22 15:41:36;;;;;;;;;;;;;;;;;;4997899;28;19921;-87
2022/12/22 15:44:04;;;;;;;;;;;;;;;;;;5033063;28;19935;-86
2022/12/22 15:46:36;;;;;;;;;;;;;;;;;;5016181;28;19936;-83
2022/12/22 15:49:09;;;;;;;;;;;;;;;;;;5026356;28;19963;-85
2022/12/22 15:51:42;;;;;;;;;;;;;;;;;;5025554;28;20282;-83
2022/12/22 15:54:14;;;;;;;;;;;;;;;;;;5022182;28;19936;-85
2022/12/22 15:56:47;;;;;;;;;;;;;;;;;;5026764;28;19929;-84
2022/12/22 15:59:14;;;;;;;;;;;;;;;;;;5027692;28;20482;-82
2022/12/22 16:01:42;;;;;;;;;;;;;;;;;;5028694;28;19939;-83
2022/12/22 16:04:14;;;;;;;;;;;;;;;;;;5020774;28;19929;-85
2022/12/22 16:06:42;;;;;;;;;;;;;;;;;;5051326;28;20710;-83
2022/12/22 16:09:14;;;;;;;;;;;;;;;;;;5024218;28;19927;-83
2022/12/22 16:11:42;;;;;;;;;;;;;;;;;;5028716;28;19936;-83
2022/12/22 16:14:15;;;;;;;;;;;;;;;;;;5031432;28;19928;-83
2022/12/22 16:16:47;;;;;;;;;;;;;;;;;;5029548;28;20612;-85
2022/12/22 16:19:15;;;;;;;;;;;;;;;;;;5020630;28;19944;-83
2022/12/22 16:21:47;;;;;;;;;;;;;;;;;;5037125;28;19929;-83
2022/12/22 16:24:20;;;;;;;;;;;;;;;;;;5022957;28;19928;-83
2022/12/22 16:26:47;;;;;;;;;;;;;;;;;;5028505;28;20413;-85
2022/12/22 16:29:20;;;;;;;;;;;;;;;;;;5021533;28;19935;-83
2022/12/22 16:31:52;;;;;;;;;;;;;;;;;;5021927;28;19925;-83
2022/12/22 16:34:25;;;;;;;;;;;;;;;;;;5029876;28;20047;-83
2022/12/22 16:36:52;;;;;;;;;;;;;;;;;;5028290;28;19928;-83
2022/12/22 16:39:20;;;;;;;;;;;;;;;;;;5022359;28;21155;-85
2022/12/22 16:41:47;;;;;;;;;;;;;;;;;;5003971;28;19928;-85
2022/12/22 16:44:18;;;;;;;;;;;;;;;;;;5013941;28;20509;-83
2022/12/22 16:47:04;;;;;;;;;;;;;;;;;;5024734;28;20206;-83
2022/12/22 16:49:36;;;;;;;;;;;;;;;;;;5017153;28;19935;-83
2022/12/22 16:52:04;;;;;;;;;;;;;;;;;;5054779;28;19970;-84
2022/12/22 16:54:32;;;;;;;;;;;;;;;;;;5021383;28;19928;-82
2022/12/22 16:56:59;;;;;;;;;;;;;;;;;;5019377;28;19929;-83
2022/12/22 16:59:28;;;;;;;;;;;;;;;;;;5019549;28;19943;-86
2022/12/22 17:01:56;;;;;;;;;;;;;;;;;;5027483;28;19933;-83
2022/12/22 17:04:28;;;;;;;;;;;;;;;;;;5024905;28;19929;-84
2022/12/22 17:06:57;;;;;;;;;;;;;;;;;;5022610;28;20429;-84
2022/12/22 17:09:29;;;;;;;;;;;;;;;;;;5026677;28;19940;-84
2022/12/22 17:11:57;;;;;;;;;;;;;;;;;;5059078;28;20467;-83
2022/12/22 17:14:24;;;;;;;;;;;;;;;;;;5033590;28;19931;-86
2022/12/22 17:16:52;;;;;;;;;;;;;;;;;;5027546;28;19928;-87
2022/12/22 17:19:20;;;;;;;;;;;;;;;;;;5023931;28;19943;-84
2022/12/22 17:21:55;;;;;;;;;;;;;;;;;;5019727;28;19928;-84
2022/12/22 17:24:23;;;;;;;;;;;;;;;;;;5019885;28;19929;-85
2022/12/22 17:26:50;;;;;;;;;;;;;;;;;;5026403;28;20856;-85
2022/12/22 17:29:18;;;;;;;;;;;;;;;;;;5030639;28;19936;-86
2022/12/22 17:31:55;;;;;;;;;;;;;;;;;;5032377;28;19936;-85
2022/12/22 17:34:22;;;;;;;;;;;;;;;;;;5056088;28;19964;-85
2022/12/22 17:36:50;;;;;;;;;;;;;;;;;;5026289;28;19929;-84
2022/12/22 17:39:17;;;;;;;;;;;;;;;;;;5021877;28;20373;-84
2022/12/22 17:41:50;;;;;;;;;;;;;;;;;;4998947;28;19924;-84
2022/12/22 17:44:22;;;;;;;;;;;;;;;;;;5026358;28;19935;-85
2022/12/22 17:46:50;;;;;;;;;;;;;;;;;;5030259;28;19929;-84
2022/12/22 17:49:18;;;;;;;;;;;;;;;;;;5030754;28;19936;-83
2022/12/22 17:51:46;;;;;;;;;;;;;;;;;;5055153;28;20611;-85
2022/12/22 17:54:13;;;;;;;;;;;;;;;;;;5034541;28;19964;-85
2022/12/22 17:56:41;;;;;;;;;;;;;;;;;;5025010;28;21303;-85
2022/12/22 17:59:13;;;;;;;;;;;;;;;;;;5023632;28;19936;-83
2022/12/22 18:01:46;;;;;;;;;;;;;;;;;;5022643;28;19937;-86
2022/12/22 18:04:19;;;;;;;;;;;;;;;;;;5017067;28;19928;-83
2022/12/22 18:06:46;;;;;;;;;;;;;;;;;;5018543;28;20834;-83
2022/12/22 18:09:14;;;;;;;;;;;;;;;;;;5017430;28;19936;-83
2022/12/22 18:11:47;;;;;;;;;;;;;;;;;;5018225;28;19928;-82
2022/12/22 18:14:14;;;;;;;;;;;;;;;;;;5021270;28;19935;-82
2022/12/22 18:16:42;;;;;;;;;;;;;;;;;;5049905;28;19952;-84
2022/12/22 18:19:10;;;;;;;;;;;;;;;;;;5015593;28;21733;-84
2022/12/22 18:21:42;;;;;;;;;;;;;;;;;;5021847;28;20642;-81
2022/12/22 18:24:15;;;;;;;;;;;;;;;;;;5018317;28;19940;-82
2022/12/22 18:26:42;;;;;;;;;;;;;;;;;;5048043;28;19929;-85
2022/12/22 18:29:10;;;;;;;;;;;;;;;;;;5018003;28;20283;-84
2022/12/22 18:31:42;;;;;;;;;;;;;;;;;;5019617;28;19936;-87
2022/12/22 18:34:10;;;;;;;;;;;;;;;;;;5019747;28;19929;-82
2022/12/22 18:36:44;;;;;;;;;;;;;;;;;;5026683;28;20285;-85
2022/12/22 18:39:12;;;;;;;;;;;;;;;;;;5032844;28;19929;-80
2022/12/22 18:41:44;;;;;;;;;;;;;;;;;;5030923;28;19929;-82
2022/12/22 18:44:17;;;;;;;;;;;;;;;;;;5015803;28;19928;-82
2022/12/22 18:46:49;;;;;;;;;;;;;;;;;;5024634;28;20396;-84
2022/12/22 18:49:17;;;;;;;;;;;;;;;;;;5021762;28;19947;-82
2022/12/22 18:51:50;;;;;;;;;;;;;;;;;;5028663;28;19929;-85
2022/12/22 18:54:17;;;;;;;;;;;;;;;;;;5022911;28;20143;-84
2022/12/22 18:56:50;;;;;;;;;;;;;;;;;;5053680;28;21375;-82
2022/12/22 18:59:23;;;;;;;;;;;;;;;;;;5025884;28;19940;-82
2022/12/22 19:01:50;;;;;;;;;;;;;;;;;;5020044;28;19929;-82
2022/12/22 19:04:18;;;;;;;;;;;;;;;;;;5027891;28;19936;-82
2022/12/22 19:06:45;;;;;;;;;;;;;;;;;;5022844;28;20290;-83
2022/12/22 19:09:18;;;;;;;;;;;;;;;;;;5023282;28;19935;-82
2022/12/22 19:11:46;;;;;;;;;;;;;;;;;;5022456;28;19932;-84
2022/12/22 19:14:13;;;;;;;;;;;;;;;;;;5028392;28;19928;-85
2022/12/22 19:16:41;;;;;;;;;;;;;;;;;;5050448;28;19920;-85
2022/12/22 19:19:08;;;;;;;;;;;;;;;;;;5030883;28;20316;-86
2022/12/22 19:21:41;;;;;;;;;;;;;;;;;;5023984;28;21493;-84
2022/12/22 19:24:14;;;;;;;;;;;;;;;;;;5029756;28;19936;-83
2022/12/22 19:26:41;;;;;;;;;;;;;;;;;;5019638;28;19929;-81
2022/12/22 19:29:14;;;;;;;;;;;;;;;;;;5053446;28;19928;-82
2022/12/22 19:31:46;;;;;;;;;;;;;;;;;;5061485;28;19928;-86
2022/12/22 19:34:19;;;;;;;;;;;;;;;;;;5020854;28;19928;-86
2022/12/22 19:36:51;;;;;;;;;;;;;;;;;;5022595;28;19936;-82
2022/12/22 19:39:24;;;;;;;;;;;;;;;;;;5023477;28;20288;-83
2022/12/22 19:41:56;;;;;;;;;;;;;;;;;;5020134;28;20708;-84
2022/12/22 19:44:29;;;;;;;;;;;;;;;;;;5025455;28;21604;-83
2022/12/22 19:46:57;;;;;;;;;;;;;;;;;;5019085;28;19929;-82
2022/12/22 19:49:25;;;;;;;;;;;;;;;;;;5019585;28;19929;-86
2022/12/22 19:51:53;;;;;;;;;;;;;;;;;;5029052;28;19928;-84
2022/12/22 19:54:26;;;;;;;;;;;;;;;;;;5062625;28;20401;-85
2022/12/22 19:56:59;;;;;;;;;;;;;;;;;;5021555;28;19928;-84
2022/12/22 19:59:31;;;;;;;;;;;;;;;;;;5060136;28;19940;-84
2022/12/22 20:01:59;;;;;;;;;;;;;;;;;;5025074;28;19929;-84
2022/12/22 20:04:26;;;;;;;;;;;;;;;;;;5023679;28;19929;-85
2022/12/22 20:06:54;;;;;;;;;;;;;;;;;;5024808;28;20694;-85
2022/12/22 20:09:26;;;;;;;;;;;;;;;;;;5021352;28;20468;-86
2022/12/22 20:11:59;;;;;;;;;;;;;;;;;;5037255;28;19929;-83
2022/12/22 20:14:33;;;;;;;;;;;;;;;;;;5019593;28;19959;-83
2022/12/22 20:17:00;;;;;;;;;;;;;;;;;;5020661;28;19936;-84
2022/12/22 20:19:33;;;;;;;;;;;;;;;;;;5055464;28;19925;-86
2022/12/22 20:22:00;;;;;;;;;;;;;;;;;;5023358;28;19929;-84
2022/12/22 20:24:33;;;;;;;;;;;;;;;;;;5053627;28;19936;-83
2022/12/22 20:27:01;;;;;;;;;;;;;;;;;;5029258;28;20285;-86
2022/12/22 20:29:33;;;;;;;;;;;;;;;;;;5020963;28;19928;-85
2022/12/22 20:32:01;;;;;;;;;;;;;;;;;;5022068;28;20047;-86
2022/12/22 20:34:28;;;;;;;;;;;;;;;;;;5028390;28;19929;-85
2022/12/22 20:36:57;;;;;;;;;;;;;;;;;;5018304;28;20313;-82
2022/12/22 20:39:28;;;;;;;;;;;;;;;;;;5022112;28;19928;-83
2022/12/22 20:41:56;;;;;;;;;;;;;;;;;;4993089;28;20396;-84
2022/12/22 20:44:28;;;;;;;;;;;;;;;;;;5027123;28;19928;-83
2022/12/22 20:47:01;;;;;;;;;;;;;;;;;;5026054;28;19921;-83
2022/12/22 20:49:28;;;;;;;;;;;;;;;;;;5033381;28;19929;-85
2022/12/22 20:51:56;;;;;;;;;;;;;;;;;;5019473;28;19929;-83
2022/12/22 20:54:28;;;;;;;;;;;;;;;;;;5050940;28;19929;-82
2022/12/22 20:56:56;;;;;;;;;;;;;;;;;;5025267;28;19925;-84
2022/12/22 20:59:29;;;;;;;;;;;;;;;;;;5021648;28;19928;-84
2022/12/22 21:02:01;;;;;;;;;;;;;;;;;;5022062;28;20027;-85
2022/12/22 21:04:34;;;;;;;;;;;;;;;;;;5030472;28;19936;-84
2022/12/22 21:07:01;;;;;;;;;;;;;;;;;;5023264;28;19921;-84
2022/12/22 21:09:34;;;;;;;;;;;;;;;;;;5026894;28;19928;-85
2022/12/22 21:12:02;;;;;;;;;;;;;;;;;;5022814;28;20301;-82